Thomson Dream — 9HA2381 — position and weather

sailwx.info

Track history (hours):
 
Tides and Currents Weather Stations Pressure Air Temp Water Temp Dewpoint Dewpoint Depression Visibility Wind Speed Wind Dir Waves Ship Positions

Thomson Dream

Last reported at 2016-May-24 22:33 UTC. Time now 2016-May-27 22:02 UTC.
Position N 37°23' E 025°55'.

Length 243 m; draft 7.6 m.

Type: Ship. MMSI: 248480975.

Date/timePositionNaut miles runAvg speedWind from/ knotsBaromVisibWave heightAir tempDewpointWater temp
2016-May-24 22:33N 37°23' E 025°55'1111.1
2016-May-24 21:34N 37°33' E 025°52'4 0.2
2016-May-24 02:16N 37°30' E 025°50'1216.6
2016-May-24 01:33N 37°18' E 025°52'95 3.2
2016-May-22 19:33N 37°16' E 023°52'1716.9
2016-May-22 18:33N 37°32' E 023°45'1716.6
2016-May-22 17:33N 37°47' E 023°38'9 9.0
2016-May-22 16:33N 37°56' E 023°38'0 0.0
2016-May-22 15:33N 37°56' E 023°38'0 0.0
2016-May-22 14:33N 37°56' E 023°38'0 0.0
2016-May-22 13:33N 37°56' E 023°38'0 0.0
2016-May-22 12:33N 37°56' E 023°38'0 0.0
2016-May-22 11:33N 37°56' E 023°38'0 0.0
2016-May-22 10:33N 37°56' E 023°38'0 0.0
2016-May-22 09:33N 37°56' E 023°38'0 0.0
2016-May-22 08:33N 37°56' E 023°38'2 1.7
2016-May-22 07:33N 37°55' E 023°37'1313.3
2016-May-22 06:34N 37°43' E 023°44'1615.5
2016-May-22 05:33N 37°27' E 023°43'1615.6
2016-May-22 04:33N 37°12' E 023°39'  
2016-May-19 18:19N 41°45' E 018°42'1418.4
2016-May-19 17:33N 41°59' E 018°38'1918.8
2016-May-19 16:33N 42°18' E 018°34'9 8.5
2016-May-19 15:33N 42°26' E 018°37'6 6.4
2016-May-19 14:33N 42°28' E 018°45'2 2.2
2016-May-19 13:32N 42°25' E 018°46'0 0.0
2016-May-19 12:32N 42°25' E 018°46'0 0.0
2016-May-19 11:32N 42°25' E 018°46'0 0.0
2016-May-19 10:32N 42°25' E 018°46'0 0.0
2016-May-19 09:32N 42°25' E 018°46'0 0.0
2016-May-19 08:32N 42°25' E 018°46'0 0.0
2016-May-19 07:32N 42°25' E 018°46'0 0.0
2016-May-19 06:32N 42°25' E 018°46'0 0.0
2016-May-19 05:32N 42°25' E 018°46'1 1.2
2016-May-19 04:33N 42°27' E 018°46'6 5.8
2016-May-19 03:33N 42°26' E 018°38'6 5.7
2016-May-19 02:33N 42°22' E 018°32'9 8.6
2016-May-19 01:33N 42°20' E 018°21'1 1.0
2016-May-19 00:18N 42°19' E 018°22'1 0.9
2016-May-18 23:33N 42°18' E 018°22'1 0.8
2016-May-18 22:33N 42°18' E 018°23'1 0.9
2016-May-18 21:33N 42°17' E 018°24'1 0.8
2016-May-18 20:33N 42°17' E 018°25'1 0.7
2016-May-18 19:33N 42°16' E 018°25'8 8.0
2016-May-18 18:33N 42°23' E 018°18'1110.9
2016-May-18 17:33N 42°30' E 018°07'273 5.8
2016-May-16 18:12N 45°10' E 013°01'1117.4
2016-May-16 17:33N 45°21' E 012°57'1818.0
2016-May-16 16:33N 45°22' E 012°32'9 8.9
2016-May-16 15:33N 45°26' E 012°20'1 1.1
2016-May-16 14:29N 45°26' E 012°19'0 0.0
2016-May-16 13:30N 45°26' E 012°19'0 0.0
2016-May-16 11:29N 45°26' E 012°19'0 0.0
2016-May-16 09:29N 45°26' E 012°19'0 0.0
2016-May-16 08:29N 45°26' E 012°19'3 0.8
2016-May-16 04:22N 45°26' E 012°24'7 8.6
2016-May-16 03:33N 45°23' E 012°32'8 8.5
2016-May-16 02:33N 45°24' E 012°44'2 1.9
2016-May-16 01:27N 45°25' E 012°47'4 4.3
2016-May-16 00:33N 45°26' E 012°52'  
Track history (hours):
 
Tides and Currents Weather Stations Pressure Air Temp Water Temp Dewpoint Dewpoint Depression Visibility Wind Speed Wind Dir Waves Ship Positions

Thomson Dream

Last reported at 2016-May-24 22:33 UTC. Time now 2016-May-27 22:02 UTC.
Position N 37°23' E 025°55'.

Length 243 m; draft 7.6 m.

Type: Ship. MMSI: 248480975.

Date/timePositionNaut miles runAvg speedWind from/ knotsBaromVisibWave heightAir tempDewpointWater temp
2016-May-24 22:33N 37°23' E 025°55'1111.1
2016-May-24 21:34N 37°33' E 025°52'4 0.2
2016-May-24 02:16N 37°30' E 025°50'1216.6
2016-May-24 01:33N 37°18' E 025°52'95 3.2
2016-May-22 19:33N 37°16' E 023°52'1716.9
2016-May-22 18:33N 37°32' E 023°45'1716.6
2016-May-22 17:33N 37°47' E 023°38'9 9.0
2016-May-22 16:33N 37°56' E 023°38'0 0.0
2016-May-22 15:33N 37°56' E 023°38'0 0.0
2016-May-22 14:33N 37°56' E 023°38'0 0.0
2016-May-22 13:33N 37°56' E 023°38'0 0.0
2016-May-22 12:33N 37°56' E 023°38'0 0.0
2016-May-22 11:33N 37°56' E 023°38'0 0.0
2016-May-22 10:33N 37°56' E 023°38'0 0.0
2016-May-22 09:33N 37°56' E 023°38'0 0.0
2016-May-22 08:33N 37°56' E 023°38'2 1.7
2016-May-22 07:33N 37°55' E 023°37'1313.3
2016-May-22 06:34N 37°43' E 023°44'1615.5
2016-May-22 05:33N 37°27' E 023°43'1615.6
2016-May-22 04:33N 37°12' E 023°39'  
2016-May-19 18:19N 41°45' E 018°42'1418.4
2016-May-19 17:33N 41°59' E 018°38'1918.8
2016-May-19 16:33N 42°18' E 018°34'9 8.5
2016-May-19 15:33N 42°26' E 018°37'6 6.4
2016-May-19 14:33N 42°28' E 018°45'2 2.2
2016-May-19 13:32N 42°25' E 018°46'0 0.0
2016-May-19 12:32N 42°25' E 018°46'0 0.0
2016-May-19 11:32N 42°25' E 018°46'0 0.0
2016-May-19 10:32N 42°25' E 018°46'0 0.0
2016-May-19 09:32N 42°25' E 018°46'0 0.0
2016-May-19 08:32N 42°25' E 018°46'0 0.0
2016-May-19 07:32N 42°25' E 018°46'0 0.0
2016-May-19 06:32N 42°25' E 018°46'0 0.0
2016-May-19 05:32N 42°25' E 018°46'1 1.2
2016-May-19 04:33N 42°27' E 018°46'6 5.8
2016-May-19 03:33N 42°26' E 018°38'6 5.7
2016-May-19 02:33N 42°22' E 018°32'9 8.6
2016-May-19 01:33N 42°20' E 018°21'1 1.0
2016-May-19 00:18N 42°19' E 018°22'1 0.9
2016-May-18 23:33N 42°18' E 018°22'1 0.8
2016-May-18 22:33N 42°18' E 018°23'1 0.9
2016-May-18 21:33N 42°17' E 018°24'1 0.8
2016-May-18 20:33N 42°17' E 018°25'1 0.7
2016-May-18 19:33N 42°16' E 018°25'8 8.0
2016-May-18 18:33N 42°23' E 018°18'1110.9
2016-May-18 17:33N 42°30' E 018°07'273 5.8
2016-May-16 18:12N 45°10' E 013°01'1117.4
2016-May-16 17:33N 45°21' E 012°57'1818.0
2016-May-16 16:33N 45°22' E 012°32'9 8.9
2016-May-16 15:33N 45°26' E 012°20'1 1.1
2016-May-16 14:29N 45°26' E 012°19'0 0.0
2016-May-16 13:30N 45°26' E 012°19'0 0.0
2016-May-16 11:29N 45°26' E 012°19'0 0.0
2016-May-16 09:29N 45°26' E 012°19'0 0.0
2016-May-16 08:29N 45°26' E 012°19'3 0.8
2016-May-16 04:22N 45°26' E 012°24'7 8.6
2016-May-16 03:33N 45°23' E 012°32'8 8.5
2016-May-16 02:33N 45°24' E 012°44'2 1.9
2016-May-16 01:27N 45°25' E 012°47'4 4.3
2016-May-16 00:33N 45°26' E 012°52'  

Dump ship's entire track history